Utsunomiya Air Base, Japan

10:52 AM JST on July 28, 2016 (GMT +0900)
Utsunomiya Aero | | Change Station

Elev 341 ft 36.51 °N, 139.87 °E | Updated 7 minutes ago

Mostly Cloudy
Mostly Cloudy
81 °F
Feels Like 84 °F
N
4
Wind Variable Wind from Variable

Today
High -- | Low -- °F
--% Chance of Precip.
Yesterday
High -- | Low -- °F
Precip. -- in
Pressure 29.95 in
Visibility 6.2 miles
Clouds Few 1500 ft
Scattered Clouds 3500 ft
Mostly Cloudy 4000 ft
Heat Index 84 °F
Dew Point 70 °F
Humidity 70%
Rainfall 0.00 in
Snow Depth Not available.
4:43 AM 6:50 PM
Last Quarter, 37% visible
SPECI RJTU 280145Z VRB03KT 9999 FEW015 SCT035 BKN040 27/21 Q1014 RMK 1CU015 4SC035 7SC040 A2995
Pressure 29.95 in
Visibility 6.2 miles
Clouds Few 1500 ft
Scattered Clouds 3500 ft
Mostly Cloudy 4000 ft
Heat Index 84 °F
Dew Point 70 °F
Humidity 70%
Rainfall 0.00 in
Snow Depth Not available.
4:43 AM 6:50 PM
Last Quarter, 37% visible
SPECI RJTU 280145Z VRB03KT 9999 FEW015 SCT035 BKN040 27/21 Q1014 RMK 1CU015 4SC035 7SC040 A2995

10-Day Weather Forecast

No radar image for this location.
×

Almanac

Astronomy

Jul. 28, 2016 Rise Set
Actual Time
Civil Twilight
Nautical Twilight
Astronomical Twilight
Moon
Length of Visible Light
Length of Day
Tomorrow will be .
, % of the Moon is Illuminated

Today's Extremes

Country Highs Country Lows

Community

WunderPhotos

Upload Photos

1,928,005 photos uploaded!

WunderBlog® & News

Nearby

Air Quality

  Air Quality AQ Index Pollutant
Not available.

Snow Depth

Station Depth Elevation

Earthquake Activity

City Distance Mag. Time & Date
Minimum magnitude displayed is 2.5.

Coastal Water Temperatures

Place Temperature

Stations

Nearby Weather Stations

Station Location Temp. Windchill Dew Point Humidity Wind Precip. Elev Updated Type